Time;durP1;ratioP1;P1;durP2;ratioP2;P2;SDS_P1;SDS_P2;PMS_P1;PMS_P2;Temp;Humidity;BMP_temperature;BMP_pressure;BME280_temperature;BME280_humidity;BME280_pressure;Samples;Min_cycle;Max_cycle;Signal;HPM_P1;HPM_P2
2021/08/08 00:01:07;;;;;;;6.65;3.58;;;18.40;71.60;;;;;;5052105;28;20387;-81
2021/08/08 00:03:33;;;;;;;10.43;3.95;;;18.40;71.60;;;;;;5060829;28;20029;-80
2021/08/08 00:05:59;;;;;;;9.70;4.47;;;18.40;71.70;;;;;;5049152;28;20033;-80
2021/08/08 00:08:29;;;;;;;13.07;4.43;;;18.40;71.70;;;;;;5048880;28;20531;-81
2021/08/08 00:10:55;;;;;;;8.80;3.58;;;18.40;71.80;;;;;;5049019;28;20037;-80
2021/08/08 00:13:22;;;;;;;10.18;3.40;;;18.30;71.60;;;;;;5055545;28;20498;-81
2021/08/08 00:15:48;;;;;;;12.07;4.38;;;18.30;71.60;;;;;;5066744;28;20100;-81
2021/08/08 00:18:14;;;;;;;11.93;4.40;;;18.30;71.70;;;;;;5048606;28;20049;-81
2021/08/08 00:20:43;;;;;;;8.93;3.38;;;18.30;71.70;;;;;;5031088;28;20021;-80
2021/08/08 00:23:10;;;;;;;8.52;3.60;;;18.30;71.80;;;;;;5049202;28;20396;-80
2021/08/08 00:25:37;;;;;;;12.15;4.32;;;18.20;71.60;;;;;;5048750;28;20025;-80
2021/08/08 00:28:04;;;;;;;15.40;4.63;;;18.20;71.70;;;;;;5049338;28;20524;-81
2021/08/08 00:30:31;;;;;;;10.13;4.18;;;18.20;71.80;;;;;;5049190;28;20329;-83
2021/08/08 00:32:57;;;;;;;9.93;4.43;;;18.20;71.90;;;;;;5028347;28;20056;-82
2021/08/08 00:35:34;;;;;;;9.02;3.47;;;18.20;71.90;;;;;;5010538;28;20033;-82
2021/08/08 00:38:01;;;;;;;11.27;4.28;;;18.20;71.90;;;;;;5028430;28;20044;-83
2021/08/08 00:40:29;;;;;;;7.68;3.47;;;18.20;72.00;;;;;;5048118;28;20025;-82
2021/08/08 00:42:55;;;;;;;11.85;4.38;;;18.20;72.10;;;;;;5014503;28;20495;-84
2021/08/08 00:45:22;;;;;;;9.45;3.63;;;18.20;72.10;;;;;;5031042;28;20495;-84
2021/08/08 00:47:56;;;;;;;6.90;3.10;;;18.10;71.90;;;;;;5028906;28;20061;-81
2021/08/08 00:50:29;;;;;;;13.07;3.65;;;18.10;71.90;;;;;;5064013;28;20032;-81
2021/08/08 00:52:55;;;;;;;6.25;3.47;;;18.10;72.00;;;;;;5031021;28;20368;-80
2021/08/08 00:55:23;;;;;;;9.73;3.83;;;18.10;72.00;;;;;;5063408;28;20121;-82
2021/08/08 00:57:52;;;;;;;15.77;4.07;;;18.10;72.10;;;;;;5014205;28;20427;-82
2021/08/08 01:00:19;;;;;;;7.45;3.22;;;18.10;72.10;;;;;;5030282;28;20482;-82
2021/08/08 01:02:53;;;;;;;11.68;3.58;;;18.10;72.20;;;;;;5047373;28;20068;-79
2021/08/08 01:05:28;;;;;;;10.25;3.25;;;18.10;72.20;;;;;;5029562;28;20468;-79
2021/08/08 01:07:59;;;;;;;;;;;18.10;72.30;;;;;;5030348;28;20052;-79
2021/08/08 01:10:28;;;;;;;6.53;3.25;;;18.10;72.10;;;;;;5029607;28;19909;-79
2021/08/08 01:12:55;;;;;;;10.50;3.85;;;18.10;72.00;;;;;;5029105;28;20039;-79
2021/08/08 01:15:23;;;;;;;10.85;4.03;;;18.00;72.00;;;;;;5013998;28;20032;-79
2021/08/08 01:17:54;;;;;;;8.23;3.03;;;18.00;72.10;;;;;;5027324;28;20039;-79
2021/08/08 01:20:20;;;;;;;9.70;3.22;;;18.00;72.10;;;;;;5062488;28;20071;-80
2021/08/08 01:22:58;;;;;;;8.68;3.65;;;18.00;72.20;;;;;;5029802;28;20033;-81
2021/08/08 01:25:25;;;;;;;11.32;4.47;;;18.00;72.30;;;;;;5029548;28;20025;-79
2021/08/08 01:27:54;;;;;;;13.02;4.20;;;17.90;72.10;;;;;;5030032;28;20045;-80
2021/08/08 01:30:22;;;;;;;9.88;3.65;;;17.90;72.10;;;;;;5031398;28;20506;-80
2021/08/08 01:32:50;;;;;;;7.57;3.20;;;17.90;72.10;;;;;;5044027;28;20048;-79
2021/08/08 01:35:18;;;;;;;9.60;3.65;;;17.90;72.20;;;;;;5030942;28;20064;-80
2021/08/08 01:37:45;;;;;;;9.40;3.50;;;17.90;72.30;;;;;;5042269;28;20025;-81
2021/08/08 01:40:19;;;;;;;9.73;3.38;;;17.90;72.30;;;;;;5050980;28;20036;-80
2021/08/08 01:42:49;;;;;;;7.85;3.80;;;17.90;72.40;;;;;;5051098;28;20037;-80
2021/08/08 01:45:17;;;;;;;10.18;3.63;;;17.90;72.40;;;;;;5049287;28;20075;-81
2021/08/08 01:47:50;;;;;;;14.02;4.05;;;17.90;72.50;;;;;;5043200;28;20040;-83
2021/08/08 01:50:21;;;;;;;7.65;3.03;;;17.90;72.50;;;;;;5014517;28;20057;-82
2021/08/08 01:52:49;;;;;;;9.82;3.70;;;17.90;72.50;;;;;;5030678;28;20116;-79
2021/08/08 01:55:21;;;;;;;12.00;4.07;;;17.90;72.50;;;;;;5014642;28;20057;-79
2021/08/08 01:57:58;;;;;;;13.00;4.88;;;17.90;72.50;;;;;;5014657;28;20615;-83
2021/08/08 02:00:27;;;;;;;7.95;3.67;;;17.90;72.50;;;;;;5013895;28;20026;-80
2021/08/08 02:02:59;;;;;;;11.52;3.75;;;17.90;72.50;;;;;;5014364;28;20496;-79
2021/08/08 02:05:32;;;;;;;9.38;3.47;;;17.90;72.50;;;;;;5030855;28;20101;-79
2021/08/08 02:08:01;;;;;;;11.35;3.28;;;17.80;72.40;;;;;;5030360;28;20067;-80
2021/08/08 02:10:32;;;;;;;6.75;3.38;;;17.80;72.40;;;;;;5019534;28;20029;-81
2021/08/08 02:13:01;;;;;;;9.88;3.80;;;17.80;72.50;;;;;;5034924;28;20041;-81
2021/08/08 02:15:28;;;;;;;7.43;3.20;;;17.80;72.50;;;;;;5034359;28;20120;-83
2021/08/08 02:17:59;;;;;;;7.53;3.50;;;17.80;72.50;;;;;;5034298;28;20040;-80
2021/08/08 02:20:29;;;;;;;9.73;3.42;;;17.80;72.60;;;;;;5033821;28;20025;-80
2021/08/08 02:23:00;;;;;;;8.88;3.72;;;17.80;72.60;;;;;;5050740;28;20171;-80
2021/08/08 02:25:29;;;;;;;11.15;3.60;;;17.80;72.60;;;;;;5049847;28;20025;-81
2021/08/08 02:27:57;;;;;;;6.28;3.20;;;17.80;72.60;;;;;;5034043;28;20045;-84
2021/08/08 02:30:29;;;;;;;9.90;3.42;;;17.70;72.40;;;;;;5033902;28;20025;-81
2021/08/08 02:32:57;;;;;;;8.43;3.72;;;17.70;72.40;;;;;;5049298;28;20049;-82
2021/08/08 02:35:24;;;;;;;13.38;3.78;;;17.70;72.50;;;;;;5053635;28;20025;-81
2021/08/08 02:37:50;;;;;;;10.23;3.28;;;17.70;72.50;;;;;;5069719;28;20029;-81
2021/08/08 02:40:17;;;;;;;7.22;3.33;;;17.70;72.60;;;;;;5069821;28;20471;-82
2021/08/08 02:42:45;;;;;;;9.45;3.47;;;17.70;72.70;;;;;;5069977;28;20028;-81
2021/08/08 02:45:11;;;;;;;13.80;4.00;;;17.70;72.70;;;;;;5053600;28;20502;-81
2021/08/08 02:47:37;;;;;;;8.05;2.72;;;17.70;72.80;;;;;;5036794;28;20487;-84
2021/08/08 02:50:08;;;;;;;7.72;3.35;;;17.70;72.80;;;;;;5053422;28;20021;-84
2021/08/08 02:52:35;;;;;;;9.40;3.80;;;17.70;72.80;;;;;;5070140;28;20414;-80
2021/08/08 02:55:05;;;;;;;9.93;3.53;;;17.70;72.80;;;;;;5053035;28;20112;-80
2021/08/08 02:57:31;;;;;;;11.57;3.60;;;17.70;72.80;;;;;;5070237;28;20028;-80
2021/08/08 02:59:58;;;;;;;7.65;3.80;;;17.70;72.90;;;;;;5053160;28;20044;-83
2021/08/08 03:02:24;;;;;;;8.50;3.72;;;17.60;72.70;;;;;;5053887;28;20048;-84
2021/08/08 03:04:50;;;;;;;8.13;3.00;;;17.60;72.70;;;;;;5054152;28;20107;-82
2021/08/08 03:07:16;;;;;;;10.85;3.35;;;17.70;72.90;;;;;;5070751;28;20152;-82
2021/08/08 03:09:43;;;;;;;5.05;2.97;;;17.60;72.70;;;;;;5053649;28;20032;-83
2021/08/08 03:12:09;;;;;;;7.78;3.30;;;17.60;72.70;;;;;;5070711;28;20037;-79
2021/08/08 03:14:40;;;;;;;7.68;3.35;;;17.60;72.70;;;;;;5054557;28;20498;-79
2021/08/08 03:17:07;;;;;;;10.00;3.35;;;17.60;72.70;;;;;;5053108;28;20085;-83
2021/08/08 03:19:33;;;;;;;7.80;3.50;;;17.60;72.80;;;;;;5053459;28;20060;-79
2021/08/08 03:21:59;;;;;;;8.95;3.58;;;17.60;72.80;;;;;;5070503;28;20056;-82
2021/08/08 03:24:26;;;;;;;7.90;3.35;;;17.60;72.90;;;;;;5053938;28;20052;-82
2021/08/08 03:26:55;;;;;;;9.40;3.45;;;17.60;72.90;;;;;;5072444;28;20424;-80
2021/08/08 03:29:21;;;;;;;8.07;3.45;;;17.50;72.80;;;;;;5057355;28;20035;-78
2021/08/08 03:31:49;;;;;;;10.55;3.03;;;17.50;72.90;;;;;;5066930;28;20037;-81
2021/08/08 03:34:15;;;;;;;6.70;3.22;;;17.50;73.00;;;;;;5053329;28;20116;-77
2021/08/08 03:36:42;;;;;;;5.93;2.95;;;17.40;72.80;;;;;;5036845;28;20494;-78
2021/08/08 03:39:08;;;;;;;9.32;3.60;;;17.40;73.00;;;;;;5053702;28;20025;-79
2021/08/08 03:41:35;;;;;;;8.20;3.55;;;17.40;73.00;;;;;;5053564;28;20036;-81
2021/08/08 03:44:01;;;;;;;11.27;3.58;;;17.40;73.10;;;;;;5054907;28;20115;-80
2021/08/08 03:46:27;;;;;;;5.93;3.40;;;17.40;73.20;;;;;;5033351;28;20029;-84
2021/08/08 03:48:54;;;;;;;9.75;3.08;;;17.40;73.20;;;;;;5033185;28;20038;-80
2021/08/08 03:51:20;;;;;;;4.88;3.10;;;17.40;73.30;;;;;;5034489;28;20041;-79
2021/08/08 03:53:46;;;;;;;10.50;3.20;;;17.40;73.30;;;;;;5034723;28;20033;-80
2021/08/08 03:56:12;;;;;;;9.98;3.20;;;17.40;73.40;;;;;;5034312;28;20382;-79
2021/08/08 03:58:38;;;;;;;9.15;3.47;;;17.30;73.30;;;;;;5035911;28;20044;-78
2021/08/08 04:01:05;;;;;;;8.05;3.85;;;17.40;73.50;;;;;;5034209;28;20108;-80
2021/08/08 04:03:35;;;;;;;11.60;3.40;;;17.30;73.40;;;;;;5033495;28;20033;-87
2021/08/08 04:06:02;;;;;;;13.77;3.65;;;17.30;73.50;;;;;;5049764;28;20103;-79
2021/08/08 04:08:28;;;;;;;8.70;2.80;;;17.30;73.50;;;;;;5033448;28;20038;-78
2021/08/08 04:10:55;;;;;;;9.85;3.72;;;17.30;73.60;;;;;;5038436;28;20054;-81
2021/08/08 04:13:23;;;;;;;8.38;3.58;;;17.30;73.60;;;;;;5054692;28;20033;-78
2021/08/08 04:15:51;;;;;;;9.07;3.10;;;17.30;73.60;;;;;;5035671;28;20028;-78
2021/08/08 04:18:17;;;;;;;9.60;2.90;;;17.30;73.70;;;;;;5053328;28;20029;-84
2021/08/08 04:20:44;;;;;;;8.55;3.47;;;17.30;73.70;;;;;;5054519;28;20452;-82
2021/08/08 04:23:12;;;;;;;7.43;3.50;;;17.20;73.50;;;;;;5037193;28;20032;-78
2021/08/08 04:25:39;;;;;;;10.45;3.47;;;17.20;73.60;;;;;;5019919;28;20032;-78
2021/08/08 04:28:07;;;;;;;6.57;3.10;;;17.20;73.60;;;;;;5035940;28;20495;-78
2021/08/08 04:30:35;;;;;;;7.22;2.88;;;17.20;73.70;;;;;;5037294;28;20037;-79
2021/08/08 04:33:04;;;;;;;8.27;3.80;;;17.20;73.70;;;;;;5083005;28;20059;-80
2021/08/08 04:35:31;;;;;;;8.20;3.90;;;17.20;73.80;;;;;;5095224;28;20038;-80
2021/08/08 04:37:57;;;;;;;7.15;3.00;;;17.20;73.90;;;;;;5075848;28;20028;-81
2021/08/08 04:40:25;;;;;;;8.93;3.28;;;17.20;73.90;;;;;;5092938;28;20114;-79
2021/08/08 04:42:51;;;;;;;5.78;3.17;;;17.20;74.00;;;;;;5093181;28;20030;-83
2021/08/08 04:45:22;;;;;;;5.65;2.95;;;17.20;74.00;;;;;;5093241;28;20555;-79
2021/08/08 04:47:49;;;;;;;7.35;3.08;;;17.10;73.90;;;;;;5054834;28;20404;-79
2021/08/08 04:50:15;;;;;;;5.65;3.50;;;17.10;74.00;;;;;;5065456;28;20090;-79
2021/08/08 04:52:42;;;;;;;10.95;3.15;;;17.10;73.90;;;;;;5089597;28;20035;-82
2021/08/08 04:55:09;;;;;;;8.45;3.75;;;17.10;74.00;;;;;;5089259;28;20024;-80
2021/08/08 04:57:35;;;;;;;8.57;3.63;;;17.10;74.10;;;;;;5090541;28;20039;-83
2021/08/08 05:00:01;;;;;;;3.90;2.90;;;17.10;74.10;;;;;;5090414;28;20035;-83
2021/08/08 05:02:28;;;;;;;6.63;3.30;;;17.10;74.60;;;;;;5048252;28;20020;-80
2021/08/08 05:04:54;;;;;;;5.70;3.03;;;17.10;74.10;;;;;;5055836;28;20030;-81
2021/08/08 05:07:23;;;;;;;5.30;3.25;;;17.10;74.20;;;;;;5085773;28;20593;-79
2021/08/08 05:09:49;;;;;;;5.32;2.70;;;17.10;74.20;;;;;;5084596;28;20356;-78
2021/08/08 05:12:15;;;;;;;5.30;2.47;;;17.10;74.20;;;;;;5083702;28;20548;-81
2021/08/08 05:14:48;;;;;;;4.70;2.67;;;17.10;74.20;;;;;;5049213;28;20029;-81
2021/08/08 05:17:15;;;;;;;6.57;2.95;;;17.00;74.00;;;;;;5049498;28;20033;-83
2021/08/08 05:19:41;;;;;;;6.93;2.88;;;17.00;74.00;;;;;;5067741;28;20078;-83
2021/08/08 05:22:07;;;;;;;6.03;2.72;;;17.10;74.30;;;;;;5050948;28;20380;-80
2021/08/08 05:24:33;;;;;;;4.05;2.72;;;17.00;74.20;;;;;;5050955;28;20024;-80
2021/08/08 05:26:59;;;;;;;5.32;3.03;;;17.00;74.20;;;;;;5050464;28;20037;-81
2021/08/08 05:29:25;;;;;;;7.32;2.85;;;17.00;74.20;;;;;;5068329;28;20131;-81
2021/08/08 05:31:51;;;;;;;4.90;3.28;;;17.00;74.30;;;;;;5050106;28;20136;-83
2021/08/08 05:34:20;;;;;;;4.63;2.75;;;17.00;74.30;;;;;;5066530;28;20334;-80
2021/08/08 05:36:46;;;;;;;6.00;2.85;;;17.00;74.40;;;;;;5050425;28;20028;-84
2021/08/08 05:39:12;;;;;;;6.10;2.88;;;17.00;74.30;;;;;;5049343;28;20031;-79
2021/08/08 05:41:39;;;;;;;5.25;2.50;;;16.90;74.20;;;;;;5049884;28;20464;-80
2021/08/08 05:44:05;;;;;;;6.75;2.80;;;16.90;74.20;;;;;;5050144;28;20032;-82
2021/08/08 05:46:32;;;;;;;2.47;2.28;;;16.90;74.30;;;;;;5067623;28;20475;-81
2021/08/08 05:48:58;;;;;;;7.13;2.50;;;16.90;74.40;;;;;;5049866;28;20037;-86
2021/08/08 05:51:24;;;;;;;3.22;2.45;;;16.90;74.40;;;;;;5050242;28;20025;-84
2021/08/08 05:53:50;;;;;;;4.47;1.98;;;16.90;74.40;;;;;;5050159;28;20032;-81
2021/08/08 05:56:16;;;;;;;6.00;2.75;;;17.00;74.60;;;;;;5066305;28;20380;-85
2021/08/08 05:58:43;;;;;;;5.07;3.05;;;17.00;74.60;;;;;;5050226;28;20082;-80
2021/08/08 06:01:09;;;;;;;3.45;2.60;;;17.00;74.60;;;;;;5066188;28;20043;-81
2021/08/08 06:03:35;;;;;;;3.35;2.45;;;17.00;74.60;;;;;;5067492;28;20032;-80
2021/08/08 06:06:01;;;;;;;4.78;2.53;;;17.00;74.60;;;;;;5049948;28;20050;-83
2021/08/08 06:08:28;;;;;;;5.03;2.65;;;17.00;74.60;;;;;;5067995;28;20465;-87
2021/08/08 06:10:55;;;;;;;6.32;2.88;;;17.00;74.60;;;;;;5050066;28;20060;-87
2021/08/08 06:13:21;;;;;;;4.32;2.45;;;17.00;74.60;;;;;;5034382;28;20068;-85
2021/08/08 06:15:52;;;;;;;4.85;2.95;;;17.00;74.60;;;;;;5066569;28;20024;-88
2021/08/08 06:18:18;;;;;;;6.13;2.92;;;17.00;74.60;;;;;;5049967;28;20124;-85
2021/08/08 06:20:44;;;;;;;6.07;2.65;;;17.10;74.80;;;;;;5033694;28;20119;-91
2021/08/08 06:23:13;;;;;;;7.50;3.20;;;17.10;74.80;;;;;;5050520;28;20054;-84
2021/08/08 06:25:40;;;;;;;5.63;3.13;;;17.10;74.80;;;;;;5048420;28;20032;-86
2021/08/08 06:28:06;;;;;;;4.43;2.72;;;17.10;74.70;;;;;;5020509;28;20054;-86
2021/08/08 06:30:33;;;;;;;5.40;3.50;;;17.10;74.70;;;;;;5033198;28;20424;-86
2021/08/08 06:32:59;;;;;;;4.55;3.10;;;17.10;74.70;;;;;;5040623;28;20616;-91
2021/08/08 06:35:25;;;;;;;5.88;3.20;;;17.20;74.90;;;;;;5030766;28;20055;-86
2021/08/08 06:37:51;;;;;;;5.40;2.95;;;17.10;74.80;;;;;;5046781;28;20459;-88
2021/08/08 06:40:18;;;;;;;5.55;2.83;;;17.10;74.80;;;;;;5046981;28;20024;-84
2021/08/08 06:42:45;;;;;;;8.88;3.63;;;17.20;74.90;;;;;;5030328;28;20086;-88
2021/08/08 06:45:14;;;;;;;7.70;3.72;;;17.20;74.90;;;;;;5013216;28;20025;-88
2021/08/08 06:47:40;;;;;;;6.05;3.22;;;17.20;74.90;;;;;;5031975;28;20040;-84
2021/08/08 06:50:08;;;;;;;5.10;3.53;;;17.20;74.90;;;;;;5049071;28;20063;-83
2021/08/08 06:52:33;;;;;;;8.93;3.75;;;17.20;74.90;;;;;;5043147;28;20377;-84
2021/08/08 06:55:01;;;;;;;5.72;3.38;;;17.30;75.10;;;;;;5021905;28;20404;-85
2021/08/08 06:57:28;;;;;;;5.47;3.67;;;17.30;75.20;;;;;;5016409;28;20028;-84
2021/08/08 06:59:59;;;;;;;8.88;4.20;;;17.30;75.20;;;;;;5009388;28;20040;-86
2021/08/08 07:02:25;;;;;;;11.27;4.03;;;17.40;75.30;;;;;;5020381;28;20032;-85
2021/08/08 07:04:51;;;;;;;5.63;4.43;;;17.40;75.30;;;;;;5053177;28;20039;-84
2021/08/08 07:07:18;;;;;;;7.78;4.28;;;17.40;75.30;;;;;;5032649;28;20457;-84
2021/08/08 07:09:44;;;;;;;6.63;4.20;;;17.50;75.40;;;;;;5040540;28;20090;-83
2021/08/08 07:12:10;;;;;;;6.13;3.80;;;17.50;75.30;;;;;;5055418;28;20029;-83
2021/08/08 07:14:43;;;;;;;9.10;4.25;;;17.60;75.50;;;;;;5050805;28;20032;-84
2021/08/08 07:17:09;;;;;;;8.73;4.05;;;17.60;75.40;;;;;;5032297;28;20140;-84
2021/08/08 07:19:36;;;;;;;6.20;4.30;;;17.60;75.40;;;;;;5051510;28;20089;-84
2021/08/08 07:22:04;;;;;;;8.32;3.92;;;17.70;75.50;;;;;;5052003;28;20094;-84
2021/08/08 07:24:30;;;;;;;8.25;4.20;;;17.80;75.70;;;;;;5045837;28;20549;-87
2021/08/08 07:26:58;;;;;;;7.65;4.13;;;17.90;75.70;;;;;;5042229;28;20067;-91
2021/08/08 07:29:25;;;;;;;9.88;4.22;;;18.00;75.80;;;;;;5044604;28;20043;-85
2021/08/08 07:31:53;;;;;;;6.13;3.60;;;18.20;75.90;;;;;;5039164;28;20040;-84
2021/08/08 07:34:19;;;;;;;8.98;4.28;;;18.30;75.80;;;;;;5066956;28;20603;-87
2021/08/08 07:36:45;;;;;;;6.82;4.05;;;18.40;75.70;;;;;;5054670;28;20293;-83
2021/08/08 07:39:11;;;;;;;7.78;3.70;;;18.40;75.50;;;;;;5048110;28;20032;-83
2021/08/08 07:41:38;;;;;;;9.23;3.72;;;18.50;75.60;;;;;;5054050;28;20037;-80
2021/08/08 07:44:05;;;;;;;10.10;4.78;;;18.50;75.50;;;;;;5049166;28;20025;-81
2021/08/08 07:46:31;;;;;;;8.07;3.72;;;18.50;75.50;;;;;;5070535;28;20105;-80
2021/08/08 07:48:57;;;;;;;8.13;4.35;;;18.50;75.50;;;;;;5051435;28;20047;-79
2021/08/08 07:51:25;;;;;;;6.75;4.07;;;18.50;75.60;;;;;;5052799;28;20548;-79
2021/08/08 07:53:52;;;;;;;10.15;4.72;;;18.40;75.40;;;;;;5052189;28;20472;-80
2021/08/08 07:56:19;;;;;;;8.68;4.15;;;18.40;75.50;;;;;;5051898;28;20067;-80
2021/08/08 07:58:48;;;;;;;6.30;4.10;;;18.40;75.50;;;;;;5052407;28;20491;-81
2021/08/08 08:01:14;;;;;;;11.43;4.28;;;18.40;75.60;;;;;;5045756;28;20383;-80
2021/08/08 08:03:40;;;;;;;11.15;4.60;;;18.40;75.70;;;;;;5069423;28;20556;-82
2021/08/08 08:06:06;;;;;;;13.75;4.53;;;18.30;75.50;;;;;;5069072;28;20056;-83
2021/08/08 08:08:33;;;;;;;9.15;4.55;;;18.30;75.50;;;;;;5068242;28;20037;-82
2021/08/08 08:10:59;;;;;;;10.70;5.07;;;18.30;75.50;;;;;;5062541;28;20025;-86
2021/08/08 08:13:25;;;;;;;11.13;4.47;;;18.30;75.50;;;;;;5050684;28;20445;-84
2021/08/08 08:15:51;;;;;;;7.75;4.32;;;18.30;75.60;;;;;;5051345;28;20395;-83
2021/08/08 08:18:17;;;;;;;11.65;6.00;;;18.30;75.70;;;;;;5051016;28;20335;-82
2021/08/08 08:20:44;;;;;;;10.98;5.25;;;18.30;75.70;;;;;;5051952;28;20036;-83
2021/08/08 08:23:10;;;;;;;12.98;5.90;;;18.30;75.70;;;;;;5051673;28;20039;-82
2021/08/08 08:25:37;;;;;;;11.43;5.32;;;18.30;75.70;;;;;;5051558;28;20028;-81
2021/08/08 08:28:03;;;;;;;14.10;5.93;;;18.40;75.80;;;;;;5051392;28;20407;-78
2021/08/08 08:30:30;;;;;;;11.23;5.57;;;18.40;75.80;;;;;;5067632;28;20066;-78
2021/08/08 08:32:59;;;;;;;10.32;5.15;;;18.30;75.60;;;;;;5035883;28;20385;-81
2021/08/08 08:35:27;;;;;;;13.55;5.68;;;18.30;75.60;;;;;;5015680;28;20063;-81
2021/08/08 08:37:54;;;;;;;16.60;5.82;;;18.30;75.60;;;;;;5049470;28;20560;-80
2021/08/08 08:40:22;;;;;;;11.43;6.15;;;18.30;75.60;;;;;;5036952;28;20104;-79
2021/08/08 08:42:56;;;;;;;10.15;5.40;;;18.30;75.70;;;;;;5022739;28;20029;-85
2021/08/08 08:45:22;;;;;;;;;;;18.30;75.70;;;;;;5033796;28;20030;-85
2021/08/08 08:47:49;;;;;;;9.95;5.57;;;18.40;75.70;;;;;;5031818;28;19919;-84
2021/08/08 08:50:17;;;;;;;9.38;5.10;;;18.30;75.40;;;;;;5049353;28;20025;-85
2021/08/08 08:52:46;;;;;;;10.63;5.43;;;18.40;75.60;;;;;;5031204;28;20488;-86
2021/08/08 08:55:13;;;;;;;9.73;5.50;;;18.40;75.70;;;;;;5031192;28;20510;-84
2021/08/08 08:57:41;;;;;;;9.82;6.38;;;18.40;75.70;;;;;;5032982;28;20182;-87
2021/08/08 09:00:09;;;;;;;11.57;5.45;;;18.40;75.70;;;;;;5032380;28;20387;-86
2021/08/08 09:02:38;;;;;;;9.73;5.80;;;18.50;75.90;;;;;;5015854;28;20036;-86
2021/08/08 09:05:05;;;;;;;10.30;6.00;;;18.40;75.60;;;;;;5031484;28;20120;-86
2021/08/08 09:07:32;;;;;;;11.48;5.18;;;18.50;75.80;;;;;;5031327;28;20035;-84
2021/08/08 09:09:59;;;;;;;11.30;5.18;;;18.50;75.80;;;;;;5030175;28;20033;-85
2021/08/08 09:12:29;;;;;;;8.93;5.25;;;18.50;75.80;;;;;;5030763;28;20020;-84
2021/08/08 09:15:02;;;;;;;8.75;5.10;;;18.50;75.70;;;;;;5030609;28;20048;-82
2021/08/08 09:17:39;;;;;;;9.38;5.22;;;18.50;75.70;;;;;;5063108;28;20029;-80
2021/08/08 09:20:10;;;;;;;8.75;5.20;;;18.50;75.70;;;;;;5046659;28;20025;-79
2021/08/08 09:22:39;;;;;;;;;;;18.50;75.60;;;;;;5046837;28;20056;-80
2021/08/08 09:25:09;;;;;;;8.05;5.03;;;18.60;75.60;;;;;;5029707;28;20118;-81
2021/08/08 09:27:39;;;;;;;6.63;4.63;;;18.60;75.60;;;;;;5025035;28;20030;-81
2021/08/08 09:30:21;;;;;;;10.02;5.15;;;18.60;76.20;;;;;;4999448;28;20559;-82
2021/08/08 09:33:04;;;;;;;7.30;4.55;;;18.70;75.80;;;;;;5031316;28;20148;-83
2021/08/08 09:35:38;;;;;;;10.63;5.07;;;18.70;75.60;;;;;;5067079;28;20036;-81
2021/08/08 09:38:09;;;;;;;6.93;4.32;;;18.80;75.70;;;;;;5065262;28;20036;-81
2021/08/08 09:40:37;;;;;;;7.28;4.93;;;18.80;75.60;;;;;;5067186;28;20198;-86
2021/08/08 09:43:05;;;;;;;10.57;5.18;;;18.90;75.70;;;;;;5044810;28;20471;-81
2021/08/08 09:45:35;;;;;;;11.73;5.22;;;18.90;75.60;;;;;;5041290;28;20025;-81
2021/08/08 09:48:01;;;;;;;8.75;5.63;;;18.90;75.70;;;;;;5058607;28;20089;-82
2021/08/08 09:50:29;;;;;;;12.40;5.65;;;19.00;76.00;;;;;;5067150;28;20028;-81
2021/08/08 09:53:03;;;;;;;10.05;5.75;;;19.00;76.10;;;;;;5066906;28;20028;-81
2021/08/08 09:55:39;;;;;;;10.35;6.03;;;19.20;76.50;;;;;;5049234;28;20020;-84
2021/08/08 09:58:22;;;;;;;12.15;5.60;;;19.30;76.60;;;;;;5047538;28;20028;-82
2021/08/08 10:00:50;;;;;;;10.63;6.07;;;19.40;76.60;;;;;;5048074;28;20032;-84
2021/08/08 10:03:17;;;;;;;12.85;6.95;;;19.60;76.80;;;;;;5066759;28;20042;-81
2021/08/08 10:05:46;;;;;;;13.07;5.68;;;19.70;76.70;;;;;;5066383;28;20035;-82
2021/08/08 10:08:14;;;;;;;10.75;5.28;;;19.90;76.90;;;;;;5046887;28;20340;-79
2021/08/08 10:10:45;;;;;;;10.73;5.47;;;20.00;76.80;;;;;;5048695;28;20035;-78
2021/08/08 10:13:30;;;;;;;8.85;5.60;;;20.20;76.90;;;;;;5061777;28;20046;-78
2021/08/08 10:15:59;;;;;;;8.88;5.55;;;20.30;76.90;;;;;;5059990;28;20036;-78
2021/08/08 10:18:31;;;;;;;9.10;5.05;;;20.50;76.90;;;;;;5066993;28;20595;-81
2021/08/08 10:20:58;;;;;;;9.63;5.00;;;20.60;76.80;;;;;;5067028;28;20056;-84
2021/08/08 10:23:27;;;;;;;8.73;4.60;;;20.80;76.90;;;;;;5049336;28;20020;-85
2021/08/08 10:25:53;;;;;;;8.40;5.10;;;20.90;76.90;;;;;;5032012;28;20062;-84
2021/08/08 10:28:20;;;;;;;10.65;5.43;;;21.00;76.80;;;;;;5048998;28;20087;-83
2021/08/08 10:30:47;;;;;;;12.95;5.35;;;21.20;77.00;;;;;;5066792;28;20033;-84
2021/08/08 10:33:13;;;;;;;10.98;5.15;;;21.30;76.90;;;;;;5057107;28;20458;-84
2021/08/08 10:35:45;;;;;;;9.98;5.00;;;21.40;76.70;;;;;;5045920;28;20111;-84
2021/08/08 10:38:14;;;;;;;8.85;5.25;;;21.50;76.70;;;;;;5065447;28;20288;-86
2021/08/08 10:40:41;;;;;;;9.10;5.22;;;21.60;76.80;;;;;;5066136;28;20086;-85
2021/08/08 10:43:20;;;;;;;10.20;4.88;;;21.80;76.90;;;;;;5031919;28;20078;-84
2021/08/08 10:45:46;;;;;;;9.45;5.38;;;22.00;76.90;;;;;;5066646;28;20028;-83
2021/08/08 10:48:14;;;;;;;9.25;4.97;;;22.10;76.70;;;;;;5066206;28;20373;-86
2021/08/08 10:50:43;;;;;;;8.07;4.85;;;22.30;76.60;;;;;;5048688;28;20047;-86
2021/08/08 10:53:27;;;;;;;9.20;5.55;;;22.30;76.30;;;;;;5068978;28;20068;-87
2021/08/08 10:56:10;;;;;;;7.00;4.25;;;22.40;76.50;;;;;;5050994;28;20028;-91
2021/08/08 10:58:38;;;;;;;7.33;4.97;;;22.50;76.50;;;;;;5067897;28;20068;-87
2021/08/08 11:01:22;;;;;;;8.52;5.13;;;22.60;76.30;;;;;;5067559;28;20063;-91
2021/08/08 11:03:50;;;;;;;11.05;5.45;;;22.70;76.10;;;;;;5032320;28;20064;-88
2021/08/08 11:06:27;;;;;;;11.05;5.75;;;22.80;75.90;;;;;;5067009;28;20519;-86
2021/08/08 11:08:55;;;;;;;10.45;6.15;;;22.70;75.50;;;;;;5066917;28;20037;-88
2021/08/08 11:11:25;;;;;;;9.48;6.40;;;22.70;75.70;;;;;;5066687;28;20529;-85
2021/08/08 11:13:53;;;;;;;14.18;6.68;;;22.80;76.10;;;;;;5065660;28;20028;-85
2021/08/08 11:16:19;;;;;;;8.13;5.28;;;22.80;76.10;;;;;;5066763;28;20191;-86
2021/08/08 11:18:56;;;;;;;7.75;5.20;;;22.80;75.70;;;;;;5066754;28;20036;-89
2021/08/08 11:21:22;;;;;;;12.60;5.63;;;22.80;75.60;;;;;;5049585;28;20060;-83
2021/08/08 11:24:00;;;;;;;12.45;7.35;;;22.70;75.50;;;;;;5065954;28;20028;-82
2021/08/08 11:26:26;;;;;;;10.38;6.65;;;22.70;75.30;;;;;;5048657;28;20159;-83
2021/08/08 11:28:54;;;;;;;14.38;6.30;;;22.70;75.40;;;;;;5031648;28;20083;-82
2021/08/08 11:31:21;;;;;;;8.32;6.07;;;22.60;75.20;;;;;;5066888;28;20354;-82
2021/08/08 11:34:04;;;;;;;9.23;6.65;;;22.50;75.00;;;;;;5047532;28;20131;-83
2021/08/08 11:36:39;;;;;;;17.48;6.20;;;22.50;75.00;;;;;;5048443;28;20119;-85
2021/08/08 11:39:11;;;;;;;14.43;7.43;;;22.60;75.70;;;;;;5047629;28;20036;-85
2021/08/08 11:41:38;;;;;;;12.20;6.80;;;22.80;75.20;;;;;;5066360;28;20063;-85
2021/08/08 11:44:10;;;;;;;15.00;6.05;;;23.10;75.60;;;;;;5048470;28;20033;-86
2021/08/08 11:46:38;;;;;;;13.30;6.20;;;23.20;74.70;;;;;;5066273;28;20068;-84
2021/08/08 11:49:20;;;;;;;11.10;6.43;;;23.30;74.70;;;;;;5051621;28;20036;-84
2021/08/08 11:51:59;;;;;;;12.63;5.35;;;23.50;74.90;;;;;;5052248;28;20028;-82
2021/08/08 11:54:27;;;;;;;11.63;6.45;;;23.70;74.30;;;;;;5074202;28;20487;-92
2021/08/08 11:56:54;;;;;;;12.13;6.82;;;23.80;73.70;;;;;;5045673;28;20025;-88
2021/08/08 11:59:29;;;;;;;11.35;6.50;;;23.90;73.20;;;;;;5056047;28;20059;-93
2021/08/08 12:02:09;;;;;;;10.18;6.05;;;23.90;72.40;;;;;;5060951;28;20029;-93
2021/08/08 12:04:38;;;;;;;10.23;6.20;;;23.90;72.00;;;;;;5056283;28;20029;-93
2021/08/08 12:07:06;;;;;;;14.27;5.85;;;24.00;71.80;;;;;;5038525;28;20025;-92
2021/08/08 12:09:34;;;;;;;13.68;5.32;;;24.10;71.50;;;;;;5037604;28;20063;-91
2021/08/08 12:12:00;;;;;;;11.27;4.70;;;24.20;71.20;;;;;;5035603;28;20025;-90
2021/08/08 12:14:31;;;;;;;11.50;5.32;;;24.30;71.00;;;;;;5039450;28;20127;-92
2021/08/08 12:17:02;;;;;;;10.35;5.95;;;24.40;70.70;;;;;;5056280;28;20404;-90
2021/08/08 12:19:33;;;;;;;9.88;4.43;;;24.40;70.40;;;;;;5056155;28;20033;-84
2021/08/08 12:22:04;;;;;;;9.35;5.25;;;24.50;70.20;;;;;;5074185;28;20059;-88
2021/08/08 12:24:39;;;;;;;13.85;5.68;;;24.50;70.10;;;;;;5055648;28;20024;-92
2021/08/08 12:27:07;;;;;;;9.40;4.18;;;24.60;70.00;;;;;;5055149;28;20040;-93
2021/08/08 12:29:36;;;;;;;13.25;5.05;;;24.60;69.80;;;;;;5057914;28;20439;-92
2021/08/08 12:32:12;;;;;;;11.18;3.70;;;24.70;69.40;;;;;;5072339;28;20072;-85
2021/08/08 12:34:39;;;;;;;14.40;5.03;;;24.70;69.00;;;;;;5032601;28;20032;-85
2021/08/08 12:37:08;;;;;;;9.10;4.65;;;24.70;68.70;;;;;;5051180;28;20029;-89
2021/08/08 12:39:35;;;;;;;14.75;5.50;;;24.80;68.80;;;;;;5052242;28;20037;-90
2021/08/08 12:42:02;;;;;;;8.85;4.57;;;25.00;68.90;;;;;;5055368;28;20024;-92
2021/08/08 12:44:34;;;;;;;9.68;4.18;;;25.10;68.70;;;;;;5055626;28;20453;-91
2021/08/08 12:47:02;;;;;;;9.90;4.70;;;25.10;68.00;;;;;;5074817;28;20367;-92
2021/08/08 12:49:37;;;;;;;9.25;3.83;;;25.20;68.00;;;;;;5055873;28;20048;-90